메인 페이지
METAR-TAF:

METAR-TAF

공항 :

상파울루 구아룰류스 국제공항, 상파울루, 브라질

위도: 23-26S, 경도: 046-28W, 고도: 750m

현재 날씨관측

예보는 19분 전, 00:00시(UTC)에 발표되었습니다.
남동5kt
온도 22°C
습도 88%
기압 1019 hPa
시정: 8000m
고도 1300ft 상공 흐림

METAR: SBGR 150000Z 14005KT 8000 OVC013 22/20 Q1019

시각: 21:19 (00:19 UTC)

예보

예보는 2 시간 19분 전, 22:00시(UTC)에 발표되었습니다.
예보 대상 시간: 15일 00시부터 16일 06시까지 (UTC)
북동7kt
시정 10km 이상
고도 4000ft 상공 구름 보통
전환 중
15일 00시부터 15일 02시까지 (UTC)
동북동5kt
고도 1000ft 상공 구름 많음
일시적
15일 09시부터 15일 12시까지 (UTC)
시정: 4000m
고도 600ft 상공 구름 많음
박무
전환 중
15일 12시부터 15일 14시까지 (UTC)
북동7kt
고도 4000ft 상공 구름 보통
전환 중
15일 16시부터 15일 18시까지 (UTC)
동남동7kt
확률 30% :
일시적
15일 18시부터 15일 22시까지 (UTC)
시정: 7000m
고도 1500ft 상공 구름 많음
고도 4500ft 상공 구름 조금, 타워링 적운.
시계 내 소나기
전환 중
15일 22시부터 15일 24시까지 (UTC)
북동7kt

TAF: SBGR 142200Z 1500/1606 05007KT 9999 SCT040 TN19/1508Z TX28/1517Z BECMG 1500/1502 07005KT BKN010 TEMPO 1509/1512 4000 BR BKN006 BECMG 1512/1514 05007KT SCT040 BECMG 1516/1518 12007KT PROB30 TEMPO 1518/1522 7000 VCSH BKN015 FEW045TCU BECMG 1522/1524 05007KT RMK PHH

4,000개 이상의 공항 관측 자료 및 예보 (METAR 및 TAF 보고).

지도상에서 검색 가능한 기상관측소가 노란 점과 빨간 점으로 표시되어 있습니다.

기상관측소 명을 보려면 표시 위로 마우스를 이동하세요.

날씨 관측과 예보를 보려면 클릭하세요.

지도 변경 : 확대하려면 엑스 표시가 있는 녹색 버튼, 축소하려면 빼기 표시가 있는 녹색 버튼, 다음 페이지의 지도를 보려면 녹색 화살표를 클릭하세요.


METAR-TAF: